Time;durP1;ratioP1;P1;durP2;ratioP2;P2;SDS_P1;SDS_P2;PMS_P1;PMS_P2;Temp;Humidity;BMP_temperature;BMP_pressure;BME280_temperature;BME280_humidity;BME280_pressure;Samples;Min_cycle;Max_cycle;Signal;HPM_P1;HPM_P2
2023/04/14 00:00:21;;;;;;;12.05;3.28;;;;;;;;;;5052968;28;20204;-70
2023/04/14 00:02:47;;;;;;;9.80;2.72;;;;;;;;;;5034326;28;20127;-70
2023/04/14 00:05:13;;;;;;;20.83;4.28;;;;;;;;;;5054318;28;20200;-70
2023/04/14 00:07:39;;;;;;;16.48;2.65;;;;;;;;;;5051491;28;20144;-70
2023/04/14 00:10:06;;;;;;;16.17;3.38;;;;;;;;;;5048751;28;20048;-70
2023/04/14 00:12:32;;;;;;;14.48;3.33;;;;;;;;;;5050008;28;20045;-70
2023/04/14 00:14:58;;;;;;;19.48;2.88;;;;;;;;;;5051394;28;20049;-70
2023/04/14 00:17:24;;;;;;;11.63;3.20;;;;;;;;;;5029760;28;20507;-70
2023/04/14 00:19:50;;;;;;;16.20;3.67;;;;;;;;;;5011259;28;20627;-70
2023/04/14 00:22:17;;;;;;;12.70;2.60;;;;;;;;;;5032284;28;20048;-70
2023/04/14 00:24:43;;;;;;;18.02;3.08;;;;;;;;;;5050565;28;20040;-70
2023/04/14 00:27:10;;;;;;;12.10;2.72;;;;;;;;;;5052533;28;20071;-70
2023/04/14 00:29:38;;;;;;;18.48;3.10;;;;;;;;;;5051552;28;20124;-70
2023/04/14 00:32:05;;;;;;;16.95;3.47;;;;;;;;;;5053324;28;20036;-69
2023/04/14 00:34:32;;;;;;;13.43;3.28;;;;;;;;;;5038194;28;20052;-70
2023/04/14 00:36:58;;;;;;;18.58;3.47;;;;;;;;;;5038561;28;20088;-70
2023/04/14 00:39:24;;;;;;;18.58;3.05;;;;;;;;;;5053338;28;20050;-70
2023/04/14 00:41:50;;;;;;;15.32;4.05;;;;;;;;;;5053249;28;20650;-70
2023/04/14 00:44:17;;;;;;;20.90;3.10;;;;;;;;;;5034609;28;20098;-70
2023/04/14 00:46:43;;;;;;;14.73;3.65;;;;;;;;;;5054927;28;20725;-70
2023/04/14 00:49:10;;;;;;;15.35;3.25;;;;;;;;;;5037168;28;20092;-70
2023/04/14 00:51:36;;;;;;;16.20;3.70;;;;;;;;;;5053336;28;20044;-70
2023/04/14 00:54:04;;;;;;;20.30;3.03;;;;;;;;;;5035210;28;20056;-70
2023/04/14 00:56:30;;;;;;;15.10;3.85;;;;;;;;;;5036418;28;20063;-70
2023/04/14 00:59:00;;;;;;;17.77;4.55;;;;;;;;;;5053651;28;20439;-70
2023/04/14 01:01:27;;;;;;;14.75;2.80;;;;;;;;;;5053749;28;20082;-70
2023/04/14 01:03:54;;;;;;;13.23;3.88;;;;;;;;;;5035576;28;20040;-70
2023/04/14 01:06:20;;;;;;;14.60;3.30;;;;;;;;;;5055964;28;20107;-70
2023/04/14 01:08:48;;;;;;;23.10;3.50;;;;;;;;;;5053341;28;20041;-70
2023/04/14 01:11:14;;;;;;;12.88;3.33;;;;;;;;;;5052648;28;20122;-70
2023/04/14 01:13:46;;;;;;;16.38;3.85;;;;;;;;;;5054669;28;20040;-70
2023/04/14 01:16:16;;;;;;;14.30;3.17;;;;;;;;;;5051696;28;20044;-70
2023/04/14 01:18:49;;;;;;;11.13;3.22;;;;;;;;;;5052739;28;20145;-70
2023/04/14 01:21:19;;;;;;;12.02;3.42;;;;;;;;;;5049462;28;20065;-70
2023/04/14 01:24:00;;;;;;;10.98;2.95;;;;;;;;;;5052022;28;20186;-70
2023/04/14 01:26:30;;;;;;;14.13;3.38;;;;;;;;;;5035577;28;20068;-70
2023/04/14 01:29:02;;;;;;;11.32;2.95;;;;;;;;;;5030637;28;20112;-70
2023/04/14 01:31:31;;;;;;;14.27;3.67;;;;;;;;;;5051993;28;20044;-70
2023/04/14 01:34:03;;;;;;;14.65;3.33;;;;;;;;;;5034939;28;21530;-70
2023/04/14 01:36:34;;;;;;;14.82;3.22;;;;;;;;;;5052523;28;20096;-70
2023/04/14 01:39:02;;;;;;;10.43;3.00;;;;;;;;;;5033685;28;20037;-70
2023/04/14 01:41:29;;;;;;;17.30;3.65;;;;;;;;;;5056964;28;20138;-70
2023/04/14 01:43:57;;;;;;;10.40;2.90;;;;;;;;;;5056379;28;20045;-70
2023/04/14 01:46:23;;;;;;;13.98;3.88;;;;;;;;;;5054289;28;20258;-70
2023/04/14 01:48:49;;;;;;;19.35;4.03;;;;;;;;;;5036683;28;20044;-70
2023/04/14 01:51:17;;;;;;;15.45;3.15;;;;;;;;;;5050992;28;20036;-70
2023/04/14 01:53:44;;;;;;;14.95;3.22;;;;;;;;;;5051687;28;20036;-70
2023/04/14 01:56:12;;;;;;;17.52;3.78;;;;;;;;;;5052097;28;20045;-70
2023/04/14 01:58:38;;;;;;;18.13;3.03;;;;;;;;;;5050990;28;20495;-70
2023/04/14 02:01:06;;;;;;;14.82;3.80;;;;;;;;;;5051140;28;20066;-70
2023/04/14 02:03:33;;;;;;;16.38;3.25;;;;;;;;;;5053192;28;20048;-70
2023/04/14 02:06:02;;;;;;;13.57;3.47;;;;;;;;;;5035927;28;20071;-70
2023/04/14 02:08:29;;;;;;;15.98;3.67;;;;;;;;;;5054799;28;20051;-70
2023/04/14 02:10:57;;;;;;;12.23;2.95;;;;;;;;;;5038978;28;21230;-70
2023/04/14 02:13:23;;;;;;;12.75;2.78;;;;;;;;;;5051892;28;20040;-70
2023/04/14 02:15:50;;;;;;;15.27;2.92;;;;;;;;;;5051680;28;20479;-70
2023/04/14 02:18:18;;;;;;;16.55;3.60;;;;;;;;;;5050777;28;20048;-69
2023/04/14 02:20:46;;;;;;;13.18;3.17;;;;;;;;;;5055200;28;20358;-70
2023/04/14 02:23:13;;;;;;;20.70;3.72;;;;;;;;;;5033945;28;20115;-70
2023/04/14 02:25:41;;;;;;;14.98;3.50;;;;;;;;;;5033555;28;20076;-70
2023/04/14 02:28:10;;;;;;;11.48;3.90;;;;;;;;;;5032446;28;20049;-70
2023/04/14 02:30:39;;;;;;;13.80;3.63;;;;;;;;;;5032206;28;20559;-70
2023/04/14 02:33:07;;;;;;;11.77;3.70;;;;;;;;;;5052344;28;20055;-70
2023/04/14 02:35:39;;;;;;;15.82;3.90;;;;;;;;;;5051056;28;20053;-70
2023/04/14 02:38:07;;;;;;;18.17;4.03;;;;;;;;;;5035402;28;20049;-70
2023/04/14 02:40:36;;;;;;;12.35;3.67;;;;;;;;;;5052704;28;20053;-70
2023/04/14 02:43:07;;;;;;;16.80;4.15;;;;;;;;;;5031901;28;20456;-70
2023/04/14 02:45:33;;;;;;;17.55;3.42;;;;;;;;;;5033389;28;20047;-70
2023/04/14 02:48:02;;;;;;;15.68;3.88;;;;;;;;;;5035849;28;20044;-70
2023/04/14 02:50:31;;;;;;;12.18;2.80;;;;;;;;;;5050767;28;20036;-70
2023/04/14 02:52:58;;;;;;;18.67;3.30;;;;;;;;;;5032317;28;20047;-70
2023/04/14 02:55:25;;;;;;;17.75;3.70;;;;;;;;;;5052803;28;20107;-69
2023/04/14 02:57:53;;;;;;;9.70;2.70;;;;;;;;;;5032680;28;20040;-69
2023/04/14 03:00:20;;;;;;;15.15;3.85;;;;;;;;;;5033289;28;20049;-69
2023/04/14 03:02:46;;;;;;;19.17;4.15;;;;;;;;;;5050884;28;20841;-69
2023/04/14 03:05:13;;;;;;;13.00;3.03;;;;;;;;;;5049197;28;20489;-69
2023/04/14 03:07:42;;;;;;;16.65;3.30;;;;;;;;;;5030672;28;20292;-69
2023/04/14 03:10:10;;;;;;;14.93;3.00;;;;;;;;;;5032311;28;20071;-69
2023/04/14 03:12:37;;;;;;;14.07;3.13;;;;;;;;;;5034475;28;20139;-69
2023/04/14 03:15:04;;;;;;;14.85;3.72;;;;;;;;;;5034787;28;20079;-69
2023/04/14 03:17:31;;;;;;;19.73;4.30;;;;;;;;;;5032443;28;20612;-69
2023/04/14 03:19:59;;;;;;;19.08;3.70;;;;;;;;;;5050085;28;20129;-69
2023/04/14 03:22:26;;;;;;;16.30;3.13;;;;;;;;;;5035961;28;20499;-69
2023/04/14 03:24:57;;;;;;;14.38;2.80;;;;;;;;;;5051847;28;20052;-69
2023/04/14 03:27:26;;;;;;;12.32;3.20;;;;;;;;;;5029513;28;20488;-69
2023/04/14 03:29:55;;;;;;;14.50;2.75;;;;;;;;;;5049987;28;20469;-69
2023/04/14 03:32:22;;;;;;;16.23;3.28;;;;;;;;;;5050147;28;20037;-69
2023/04/14 03:34:52;;;;;;;12.85;3.30;;;;;;;;;;5051259;28;20056;-69
2023/04/14 03:37:22;;;;;;;13.48;3.78;;;;;;;;;;5039410;28;20048;-69
2023/04/14 03:39:50;;;;;;;10.35;3.00;;;;;;;;;;5035215;28;20500;-69
2023/04/14 03:42:18;;;;;;;18.48;3.88;;;;;;;;;;5052841;28;20055;-69
2023/04/14 03:44:48;;;;;;;14.23;3.65;;;;;;;;;;5034945;28;20116;-69
2023/04/14 03:47:15;;;;;;;16.98;3.15;;;;;;;;;;5051584;28;20053;-69
2023/04/14 03:49:45;;;;;;;17.48;2.88;;;;;;;;;;5051808;28;20041;-69
2023/04/14 03:52:12;;;;;;;17.77;2.63;;;;;;;;;;5050920;28;20136;-69
2023/04/14 03:54:41;;;;;;;14.65;2.78;;;;;;;;;;5034541;28;20063;-69
2023/04/14 03:57:08;;;;;;;10.30;2.65;;;;;;;;;;5053440;28;20059;-69
2023/04/14 03:59:35;;;;;;;12.15;3.42;;;;;;;;;;5050454;28;20053;-69
2023/04/14 04:02:02;;;;;;;12.95;3.00;;;;;;;;;;5049713;28;20061;-70
2023/04/14 04:04:29;;;;;;;17.55;3.47;;;;;;;;;;5033336;28;20135;-70
2023/04/14 04:06:56;;;;;;;12.10;4.28;;;;;;;;;;5055930;28;20036;-70
2023/04/14 04:09:23;;;;;;;11.98;3.25;;;;;;;;;;5054911;28;20407;-70
2023/04/14 04:11:51;;;;;;;12.48;2.90;;;;;;;;;;5057694;28;20117;-70
2023/04/14 04:14:19;;;;;;;18.60;3.15;;;;;;;;;;5058378;28;20062;-70
2023/04/14 04:16:48;;;;;;;17.92;3.50;;;;;;;;;;5058947;28;20558;-70
2023/04/14 04:19:15;;;;;;;14.38;4.28;;;;;;;;;;5051895;28;20424;-70
2023/04/14 04:21:44;;;;;;;18.00;3.72;;;;;;;;;;5052822;28;20139;-70
2023/04/14 04:24:11;;;;;;;16.20;3.80;;;;;;;;;;5038922;28;20041;-70
2023/04/14 04:26:37;;;;;;;9.18;3.25;;;;;;;;;;5061024;28;20067;-70
2023/04/14 04:29:04;;;;;;;14.95;3.22;;;;;;;;;;5040797;28;20045;-70
2023/04/14 04:31:31;;;;;;;13.30;3.85;;;;;;;;;;5055655;28;20045;-70
2023/04/14 04:33:58;;;;;;;16.55;3.70;;;;;;;;;;5035602;28;20053;-70
2023/04/14 04:36:30;;;;;;;19.38;4.90;;;;;;;;;;5051635;28;20040;-70
2023/04/14 04:38:57;;;;;;;10.32;3.05;;;;;;;;;;5051928;28;21224;-70
2023/04/14 04:41:24;;;;;;;13.95;4.03;;;;;;;;;;5036782;28;20053;-70
2023/04/14 04:43:50;;;;;;;15.73;3.75;;;;;;;;;;5055148;28;20044;-70
2023/04/14 04:46:23;;;;;;;14.52;3.55;;;;;;;;;;5053429;28;21761;-70
2023/04/14 04:48:52;;;;;;;12.15;3.40;;;;;;;;;;5053063;28;20588;-69
2023/04/14 04:51:18;;;;;;;13.57;4.57;;;;;;;;;;5037423;28;20365;-70
2023/04/14 04:53:44;;;;;;;11.50;3.90;;;;;;;;;;5051803;28;20851;-70
2023/04/14 04:56:10;;;;;;;13.43;3.35;;;;;;;;;;5034481;28;20087;-70
2023/04/14 04:58:37;;;;;;;19.30;4.53;;;;;;;;;;5052602;28;20595;-70
2023/04/14 05:01:09;;;;;;;13.30;4.35;;;;;;;;;;5053711;28;20128;-69
2023/04/14 05:03:36;;;;;;;19.48;3.50;;;;;;;;;;5050556;28;20402;-70
2023/04/14 05:06:02;;;;;;;13.95;3.60;;;;;;;;;;5055630;28;20395;-70
2023/04/14 05:08:28;;;;;;;14.27;3.47;;;;;;;;;;5055423;28;20056;-70
2023/04/14 05:10:54;;;;;;;8.63;3.67;;;;;;;;;;5037514;28;20049;-70
2023/04/14 05:13:21;;;;;;;13.65;4.65;;;;;;;;;;5054147;28;20182;-80
2023/04/14 05:15:47;;;;;;;16.10;4.30;;;;;;;;;;5038263;28;20532;-69
2023/04/14 05:18:14;;;;;;;12.52;4.55;;;;;;;;;;5032344;28;20041;-69
2023/04/14 05:20:40;;;;;;;14.50;3.97;;;;;;;;;;5037844;28;20056;-69
2023/04/14 05:23:06;;;;;;;13.98;4.15;;;;;;;;;;5056597;28;20040;-70
2023/04/14 05:25:32;;;;;;;12.50;4.13;;;;;;;;;;5055582;28;20067;-70
2023/04/14 05:27:59;;;;;;;14.15;4.40;;;;;;;;;;5056317;28;20040;-70
2023/04/14 05:30:26;;;;;;;16.08;4.90;;;;;;;;;;5062209;28;20049;-69
2023/04/14 05:32:52;;;;;;;11.82;4.00;;;;;;;;;;5040729;28;20090;-70
2023/04/14 05:35:19;;;;;;;13.32;4.38;;;;;;;;;;5055694;28;20211;-70
2023/04/14 05:37:45;;;;;;;13.48;4.53;;;;;;;;;;5039718;28;20053;-70
2023/04/14 05:40:11;;;;;;;16.73;5.35;;;;;;;;;;5035011;28;21023;-69
2023/04/14 05:42:39;;;;;;;17.10;5.05;;;;;;;;;;5054587;28;20044;-70
2023/04/14 05:45:06;;;;;;;12.05;3.95;;;;;;;;;;5057558;28;20044;-70
2023/04/14 05:47:32;;;;;;;14.57;4.75;;;;;;;;;;5057052;28;20044;-70
2023/04/14 05:49:58;;;;;;;18.05;4.38;;;;;;;;;;5057726;28;20048;-70
2023/04/14 05:52:25;;;;;;;13.38;3.90;;;;;;;;;;5057741;28;20404;-70
2023/04/14 05:54:51;;;;;;;14.68;4.00;;;;;;;;;;5054013;28;20083;-68
2023/04/14 05:57:17;;;;;;;13.40;4.10;;;;;;;;;;5054893;28;20037;-68
2023/04/14 05:59:43;;;;;;;12.25;4.70;;;;;;;;;;5054614;28;20036;-68
2023/04/14 06:02:09;;;;;;;12.00;4.50;;;;;;;;;;5055331;28;20446;-68
2023/04/14 06:04:35;;;;;;;9.60;3.90;;;;;;;;;;5053538;28;20499;-68
2023/04/14 06:07:02;;;;;;;15.18;4.57;;;;;;;;;;5059030;28;20040;-69
2023/04/14 06:09:28;;;;;;;12.88;5.07;;;;;;;;;;5056253;28;20224;-69
2023/04/14 06:11:55;;;;;;;12.00;4.30;;;;;;;;;;5058770;28;20401;-68
2023/04/14 06:14:21;;;;;;;16.73;3.80;;;;;;;;;;5056060;28;20130;-67
2023/04/14 06:16:49;;;;;;;17.55;5.68;;;;;;;;;;5061044;28;20044;-67
2023/04/14 06:19:17;;;;;;;11.07;4.05;;;;;;;;;;5061608;28;20055;-68
2023/04/14 06:21:44;;;;;;;13.20;4.82;;;;;;;;;;5056577;28;20040;-67
2023/04/14 06:24:10;;;;;;;20.20;6.35;;;;;;;;;;5054328;28;20113;-67
2023/04/14 06:26:36;;;;;;;15.60;4.00;;;;;;;;;;5035748;28;20051;-68
2023/04/14 06:29:04;;;;;;;10.27;4.15;;;;;;;;;;5052442;28;20480;-68
2023/04/14 06:31:30;;;;;;;9.68;3.80;;;;;;;;;;5052232;28;20040;-68
2023/04/14 06:33:56;;;;;;;9.38;4.85;;;;;;;;;;5037777;28;20080;-68
2023/04/14 06:36:22;;;;;;;10.65;4.35;;;;;;;;;;5038417;28;20059;-68
2023/04/14 06:38:49;;;;;;;15.65;4.10;;;;;;;;;;5059420;28;20159;-68
2023/04/14 06:41:15;;;;;;;14.60;4.35;;;;;;;;;;5043074;28;20088;-68
2023/04/14 06:43:41;;;;;;;13.25;5.13;;;;;;;;;;5057059;28;20068;-68
2023/04/14 06:46:07;;;;;;;13.75;4.38;;;;;;;;;;5061488;28;20756;-68
2023/04/14 06:48:34;;;;;;;12.82;4.60;;;;;;;;;;5056371;28;20056;-67
2023/04/14 06:51:00;;;;;;;18.00;6.05;;;;;;;;;;5056294;28;20045;-64
2023/04/14 06:53:26;;;;;;;13.82;5.05;;;;;;;;;;5057845;28;20045;-67
2023/04/14 06:55:59;;;;;;;13.40;4.43;;;;;;;;;;5054350;28;20061;-69
2023/04/14 06:58:26;;;;;;;11.07;4.25;;;;;;;;;;5039169;28;20079;-68
2023/04/14 07:00:58;;;;;;;12.77;4.07;;;;;;;;;;5062663;28;20036;-68
2023/04/14 07:03:25;;;;;;;16.60;5.70;;;;;;;;;;5060262;28;20427;-67
2023/04/14 07:05:52;;;;;;;14.27;5.10;;;;;;;;;;5044171;28;20091;-67
2023/04/14 07:08:19;;;;;;;14.20;3.90;;;;;;;;;;5041321;28;20064;-67
2023/04/14 07:10:45;;;;;;;14.10;4.15;;;;;;;;;;5062597;28;20110;-68
2023/04/14 07:13:11;;;;;;;10.55;3.80;;;;;;;;;;5041849;28;20106;-67
2023/04/14 07:15:38;;;;;;;17.10;3.78;;;;;;;;;;5059277;28;20051;-68
2023/04/14 07:18:04;;;;;;;11.27;3.95;;;;;;;;;;5040482;28;20055;-68
2023/04/14 07:20:30;;;;;;;16.58;5.20;;;;;;;;;;5056227;28;20493;-67
2023/04/14 07:22:56;;;;;;;11.30;4.43;;;;;;;;;;5041065;28;20056;-67
2023/04/14 07:25:22;;;;;;;14.05;4.65;;;;;;;;;;5061820;28;20052;-67
2023/04/14 07:27:49;;;;;;;21.40;5.13;;;;;;;;;;5041543;28;20070;-67
2023/04/14 07:30:15;;;;;;;17.67;5.03;;;;;;;;;;5059253;28;20047;-67
2023/04/14 07:32:41;;;;;;;9.68;5.10;;;;;;;;;;5057512;28;20049;-69
2023/04/14 07:35:09;;;;;;;10.80;4.13;;;;;;;;;;5062353;28;20131;-69
2023/04/14 07:37:35;;;;;;;12.75;4.53;;;;;;;;;;5071900;28;20396;-69
2023/04/14 07:40:02;;;;;;;17.55;4.63;;;;;;;;;;5074319;28;20051;-69
2023/04/14 07:42:29;;;;;;;11.30;4.25;;;;;;;;;;5076948;28;20488;-69
2023/04/14 07:44:55;;;;;;;13.43;4.32;;;;;;;;;;5048142;28;20036;-69
2023/04/14 07:47:21;;;;;;;13.38;4.35;;;;;;;;;;5067490;28;20045;-69
2023/04/14 07:49:48;;;;;;;11.13;4.45;;;;;;;;;;5053419;28;20098;-69
2023/04/14 07:52:15;;;;;;;19.10;5.10;;;;;;;;;;5069437;28;20037;-70
2023/04/14 07:54:41;;;;;;;16.38;4.45;;;;;;;;;;5065903;28;20052;-69
2023/04/14 07:57:09;;;;;;;14.10;4.57;;;;;;;;;;5051492;28;20116;-69
2023/04/14 07:59:37;;;;;;;16.70;5.20;;;;;;;;;;5055371;28;20048;-69
2023/04/14 08:02:03;;;;;;;15.10;4.47;;;;;;;;;;5054666;28;20033;-69
2023/04/14 08:04:30;;;;;;;18.58;4.68;;;;;;;;;;5066219;28;20515;-69
2023/04/14 08:06:56;;;;;;;16.33;4.22;;;;;;;;;;5053006;28;20043;-69
2023/04/14 08:09:22;;;;;;;11.25;3.65;;;;;;;;;;5071546;28;20089;-69
2023/04/14 08:11:49;;;;;;;17.48;3.38;;;;;;;;;;5068631;28;20136;-69
2023/04/14 08:14:15;;;;;;;10.70;3.15;;;;;;;;;;5069706;28;20040;-69
2023/04/14 08:16:41;;;;;;;10.05;3.45;;;;;;;;;;5071874;28;20056;-70
2023/04/14 08:19:07;;;;;;;11.35;3.58;;;;;;;;;;5071015;28;20522;-69
2023/04/14 08:21:33;;;;;;;11.30;3.25;;;;;;;;;;5066108;28;20403;-69
2023/04/14 08:24:00;;;;;;;10.80;3.20;;;;;;;;;;5051927;28;20429;-70
2023/04/14 08:26:26;;;;;;;12.70;3.17;;;;;;;;;;5069369;28;20455;-69
2023/04/14 08:28:54;;;;;;;9.25;3.03;;;;;;;;;;5050836;28;20057;-70
2023/04/14 08:31:24;;;;;;;13.35;3.70;;;;;;;;;;5071378;28;20106;-70
2023/04/14 08:33:51;;;;;;;8.98;3.55;;;;;;;;;;5067947;28;20070;-69
2023/04/14 08:36:18;;;;;;;11.25;3.70;;;;;;;;;;5067722;28;20050;-69
2023/04/14 08:38:44;;;;;;;11.00;3.75;;;;;;;;;;5072271;28;20080;-69
2023/04/14 08:41:13;;;;;;;14.98;3.70;;;;;;;;;;5068109;28;20053;-70
2023/04/14 08:43:39;;;;;;;11.88;2.90;;;;;;;;;;5070134;28;20041;-70
2023/04/14 08:46:07;;;;;;;10.25;3.50;;;;;;;;;;5068614;28;20057;-69
2023/04/14 08:48:35;;;;;;;15.18;3.42;;;;;;;;;;5069703;28;20051;-69
2023/04/14 08:51:06;;;;;;;13.95;3.65;;;;;;;;;;5050641;28;20166;-69
2023/04/14 08:53:33;;;;;;;12.82;4.38;;;;;;;;;;5065886;28;20449;-69
2023/04/14 08:56:02;;;;;;;14.15;3.97;;;;;;;;;;5046703;28;20048;-69
2023/04/14 08:58:28;;;;;;;18.08;4.47;;;;;;;;;;5047590;28;20403;-69
2023/04/14 09:00:55;;;;;;;11.98;3.13;;;;;;;;;;5049610;28;20055;-69
2023/04/14 09:03:21;;;;;;;12.18;3.72;;;;;;;;;;5066307;28;20068;-69
2023/04/14 09:05:47;;;;;;;12.25;3.50;;;;;;;;;;5065748;28;20049;-69
2023/04/14 09:08:16;;;;;;;18.75;4.70;;;;;;;;;;5049657;28;20045;-70
2023/04/14 09:10:42;;;;;;;14.00;3.88;;;;;;;;;;5066977;28;20040;-69
2023/04/14 09:13:11;;;;;;;15.13;3.13;;;;;;;;;;5067800;28;20464;-69
2023/04/14 09:15:37;;;;;;;12.20;3.83;;;;;;;;;;5064575;28;20123;-69
2023/04/14 09:18:04;;;;;;;15.52;3.50;;;;;;;;;;5062302;28;20035;-68
2023/04/14 09:20:31;;;;;;;9.70;3.75;;;;;;;;;;5063907;28;20052;-69
2023/04/14 09:22:57;;;;;;;12.25;3.38;;;;;;;;;;5060827;28;20522;-69
2023/04/14 09:25:23;;;;;;;11.93;3.95;;;;;;;;;;5062423;28;20373;-69
2023/04/14 09:27:50;;;;;;;10.75;3.25;;;;;;;;;;5063095;28;20451;-69
2023/04/14 09:30:16;;;;;;;14.15;3.35;;;;;;;;;;5057584;28;21372;-69
2023/04/14 09:32:43;;;;;;;10.85;3.38;;;;;;;;;;5059642;28;20048;-69
2023/04/14 09:35:12;;;;;;;11.07;3.28;;;;;;;;;;5061153;28;20506;-69
2023/04/14 09:37:43;;;;;;;12.52;3.28;;;;;;;;;;5042007;28;20531;-69
2023/04/14 09:40:10;;;;;;;12.05;3.50;;;;;;;;;;5063136;28;20040;-68
2023/04/14 09:42:38;;;;;;;9.90;3.47;;;;;;;;;;5060286;28;20051;-67
2023/04/14 09:45:05;;;;;;;14.27;2.65;;;;;;;;;;5061268;28;20174;-66
2023/04/14 09:47:31;;;;;;;12.05;3.35;;;;;;;;;;5042937;28;20744;-67
2023/04/14 09:50:02;;;;;;;17.95;3.20;;;;;;;;;;5058430;28;20115;-66
2023/04/14 09:52:37;;;;;;;9.05;2.70;;;;;;;;;;5039849;28;20407;-67
2023/04/14 09:55:06;;;;;;;8.85;2.40;;;;;;;;;;5057695;28;21202;-67
2023/04/14 09:57:34;;;;;;;11.55;2.65;;;;;;;;;;5047315;28;20045;-67
2023/04/14 10:00:00;;;;;;;9.30;2.78;;;;;;;;;;5061224;28;20048;-67
2023/04/14 10:02:26;;;;;;;12.02;3.20;;;;;;;;;;5041511;28;20045;-67
2023/04/14 10:05:04;;;;;;;15.38;3.47;;;;;;;;;;5038270;28;20361;-67
2023/04/14 10:07:30;;;;;;;8.02;2.17;;;;;;;;;;5045370;28;20049;-67
2023/04/14 10:09:56;;;;;;;7.68;2.40;;;;;;;;;;5062583;28;20119;-66
2023/04/14 10:12:23;;;;;;;7.88;2.65;;;;;;;;;;5058856;28;20493;-67
2023/04/14 10:14:49;;;;;;;7.93;2.08;;;;;;;;;;5062392;28;20040;-66
2023/04/14 10:17:16;;;;;;;8.45;2.25;;;;;;;;;;5035089;28;20139;-67
2023/04/14 10:19:42;;;;;;;10.60;2.40;;;;;;;;;;5057989;28;20496;-66
2023/04/14 10:22:09;;;;;;;5.05;1.58;;;;;;;;;;5057831;28;20048;-67
2023/04/14 10:24:35;;;;;;;9.63;1.90;;;;;;;;;;5058808;28;20040;-67
2023/04/14 10:27:03;;;;;;;10.55;1.95;;;;;;;;;;5059306;28;20454;-67
2023/04/14 10:29:30;;;;;;;9.48;2.42;;;;;;;;;;5056871;28;20199;-67
2023/04/14 10:32:06;;;;;;;12.73;2.35;;;;;;;;;;5054031;28;20033;-67
2023/04/14 10:34:33;;;;;;;8.27;2.58;;;;;;;;;;5060309;28;20179;-67
2023/04/14 10:37:12;;;;;;;8.13;1.83;;;;;;;;;;5057776;28;20046;-66
2023/04/14 10:39:39;;;;;;;7.68;2.10;;;;;;;;;;5037821;28;20443;-67
2023/04/14 10:42:05;;;;;;;7.50;1.70;;;;;;;;;;5057554;28;20058;-65
2023/04/14 10:44:33;;;;;;;6.40;1.75;;;;;;;;;;5054223;28;20165;-65
2023/04/14 10:47:01;;;;;;;5.65;1.63;;;;;;;;;;5057623;28;20438;-66
2023/04/14 10:49:33;;;;;;;5.65;1.75;;;;;;;;;;5059044;28;20050;-65
2023/04/14 10:52:01;;;;;;;8.83;1.83;;;;;;;;;;5056740;28;20041;-66
2023/04/14 10:54:27;;;;;;;11.55;2.15;;;;;;;;;;5038049;28;20310;-68
2023/04/14 10:57:08;;;;;;;6.03;1.90;;;;;;;;;;5037659;28;20400;-67
2023/04/14 10:59:35;;;;;;;7.18;2.10;;;;;;;;;;5056778;28;20120;-66
2023/04/14 11:02:01;;;;;;;7.53;2.13;;;;;;;;;;5058348;28;20041;-67
2023/04/14 11:04:27;;;;;;;5.70;1.60;;;;;;;;;;5057082;28;20231;-66
2023/04/14 11:06:55;;;;;;;7.20;1.75;;;;;;;;;;5061634;28;20060;-66
2023/04/14 11:09:23;;;;;;;8.30;1.80;;;;;;;;;;5060527;28;20036;-66
2023/04/14 11:11:49;;;;;;;8.35;1.67;;;;;;;;;;5065968;28;20043;-68
2023/04/14 11:14:15;;;;;;;7.78;1.90;;;;;;;;;;5049009;28;20139;-67
2023/04/14 11:16:44;;;;;;;7.13;2.10;;;;;;;;;;5067034;28;20040;-67
2023/04/14 11:19:14;;;;;;;6.97;1.92;;;;;;;;;;5062750;28;20048;-68
2023/04/14 11:21:49;;;;;;;8.45;2.15;;;;;;;;;;5063230;28;20064;-68
2023/04/14 11:24:16;;;;;;;7.90;2.08;;;;;;;;;;5045527;28;20032;-67
2023/04/14 11:26:43;;;;;;;7.78;1.90;;;;;;;;;;5065842;28;20169;-68
2023/04/14 11:29:09;;;;;;;12.07;2.63;;;;;;;;;;5045801;28;20043;-67
2023/04/14 11:31:36;;;;;;;8.68;1.92;;;;;;;;;;5036213;28;20388;-67
2023/04/14 11:34:05;;;;;;;9.50;1.98;;;;;;;;;;5044815;28;20446;-67
2023/04/14 11:36:35;;;;;;;8.02;2.20;;;;;;;;;;5066451;28;20056;-68
2023/04/14 11:39:02;;;;;;;7.93;1.83;;;;;;;;;;5064579;28;20068;-68
2023/04/14 11:41:29;;;;;;;9.75;2.10;;;;;;;;;;5062890;28;20048;-68
2023/04/14 11:43:55;;;;;;;10.23;2.50;;;;;;;;;;5066051;28;20040;-68
2023/04/14 11:46:21;;;;;;;7.07;1.65;;;;;;;;;;5047271;28;20076;-68
2023/04/14 11:48:48;;;;;;;7.40;1.73;;;;;;;;;;5064559;28;20488;-68
2023/04/14 11:51:14;;;;;;;7.63;1.90;;;;;;;;;;5059492;28;20094;-68
2023/04/14 11:53:42;;;;;;;6.88;1.80;;;;;;;;;;5061417;28;20052;-68
2023/04/14 11:56:10;;;;;;;6.90;1.73;;;;;;;;;;5064946;28;20114;-67
2023/04/14 11:58:36;;;;;;;4.97;1.58;;;;;;;;;;5062303;28;20067;-67
2023/04/14 12:01:02;;;;;;;7.57;2.00;;;;;;;;;;5064402;28;20041;-67
2023/04/14 12:03:31;;;;;;;6.90;1.50;;;;;;;;;;5062379;28;20072;-68
2023/04/14 12:05:58;;;;;;;9.38;2.33;;;;;;;;;;5062200;28;20127;-68
2023/04/14 12:08:25;;;;;;;5.95;1.90;;;;;;;;;;5065216;28;20131;-68
2023/04/14 12:10:52;;;;;;;7.68;2.13;;;;;;;;;;5065789;28;20473;-68
2023/04/14 12:13:19;;;;;;;6.00;1.67;;;;;;;;;;5046401;28;20052;-68
2023/04/14 12:15:45;;;;;;;8.30;2.20;;;;;;;;;;5065629;28;20051;-68
2023/04/14 12:18:13;;;;;;;7.90;1.95;;;;;;;;;;5043872;28;20041;-67
2023/04/14 12:20:44;;;;;;;7.15;2.20;;;;;;;;;;5046025;28;20392;-67
2023/04/14 12:23:10;;;;;;;7.15;1.70;;;;;;;;;;5062441;28;20044;-68
2023/04/14 12:25:37;;;;;;;7.80;1.70;;;;;;;;;;5066369;28;20412;-67
2023/04/14 12:28:07;;;;;;;9.25;2.38;;;;;;;;;;5067160;28;20273;-68
2023/04/14 12:30:34;;;;;;;7.72;2.40;;;;;;;;;;5050665;28;20095;-68
2023/04/14 12:33:11;;;;;;;8.38;2.15;;;;;;;;;;5067162;28;20071;-68
2023/04/14 12:35:37;;;;;;;8.20;1.60;;;;;;;;;;5051609;28;20151;-68
2023/04/14 12:38:11;;;;;;;7.50;1.73;;;;;;;;;;5075133;28;20041;-68
2023/04/14 12:40:38;;;;;;;6.13;1.90;;;;;;;;;;5075133;28;20101;-68
2023/04/14 12:43:05;;;;;;;7.72;1.73;;;;;;;;;;5068409;28;20084;-68
2023/04/14 12:45:41;;;;;;;10.27;2.08;;;;;;;;;;5054862;28;20037;-68
2023/04/14 12:48:07;;;;;;;7.38;2.28;;;;;;;;;;5056558;28;20076;-68
2023/04/14 12:50:33;;;;;;;7.72;1.92;;;;;;;;;;5066734;28;20032;-68
2023/04/14 12:53:00;;;;;;;7.30;2.20;;;;;;;;;;5065551;28;20036;-68
2023/04/14 12:55:28;;;;;;;10.75;1.95;;;;;;;;;;5067984;28;20049;-68
2023/04/14 12:57:55;;;;;;;8.13;2.15;;;;;;;;;;5067748;28;20055;-68
2023/04/14 13:00:21;;;;;;;7.22;1.65;;;;;;;;;;5064926;28;20051;-68
2023/04/14 13:02:48;;;;;;;8.57;1.85;;;;;;;;;;5066855;28;20040;-68
2023/04/14 13:05:15;;;;;;;8.50;1.95;;;;;;;;;;5064644;28;20063;-68
2023/04/14 13:07:41;;;;;;;9.20;2.08;;;;;;;;;;5066572;28;20043;-68
2023/04/14 13:10:07;;;;;;;8.00;1.92;;;;;;;;;;5067012;28;20040;-68
2023/04/14 13:12:34;;;;;;;10.77;1.98;;;;;;;;;;5067416;28;20036;-68
2023/04/14 13:15:00;;;;;;;9.60;1.98;;;;;;;;;;5066759;28;20041;-68
2023/04/14 13:17:26;;;;;;;9.63;1.95;;;;;;;;;;5066759;28;20040;-68
2023/04/14 13:19:52;;;;;;;8.00;1.80;;;;;;;;;;5065873;28;20139;-68
2023/04/14 13:22:19;;;;;;;6.85;1.83;;;;;;;;;;5067954;28;20124;-68
2023/04/14 13:24:45;;;;;;;7.88;2.03;;;;;;;;;;5064057;28;20045;-68
2023/04/14 13:27:11;;;;;;;6.78;2.20;;;;;;;;;;5031357;28;20044;-68
2023/04/14 13:29:37;;;;;;;5.72;1.60;;;;;;;;;;5067196;28;20037;-68
2023/04/14 13:32:08;;;;;;;6.68;1.80;;;;;;;;;;5067134;28;20044;-68
2023/04/14 13:34:35;;;;;;;5.68;1.90;;;;;;;;;;5041301;28;20041;-68
2023/04/14 13:37:02;;;;;;;8.38;2.47;;;;;;;;;;5049280;28;20373;-68
2023/04/14 13:39:28;;;;;;;6.03;1.90;;;;;;;;;;5048446;28;20045;-68
2023/04/14 13:41:54;;;;;;;6.18;1.80;;;;;;;;;;5066295;28;20109;-68
2023/04/14 13:44:20;;;;;;;8.32;1.80;;;;;;;;;;5045875;28;20040;-68
2023/04/14 13:46:48;;;;;;;8.20;1.83;;;;;;;;;;5045736;28;20044;-68
2023/04/14 13:49:14;;;;;;;7.55;2.08;;;;;;;;;;5049799;28;20095;-68
2023/04/14 13:51:40;;;;;;;9.25;1.88;;;;;;;;;;5065949;28;20055;-68
2023/04/14 13:54:06;;;;;;;7.43;1.80;;;;;;;;;;5066595;28;20098;-68
2023/04/14 13:56:33;;;;;;;8.95;2.00;;;;;;;;;;5066533;28;20036;-68
2023/04/14 13:58:59;;;;;;;6.85;1.60;;;;;;;;;;5049968;28;20163;-68
2023/04/14 14:01:26;;;;;;;9.13;2.17;;;;;;;;;;5065424;28;20040;-68
2023/04/14 14:03:52;;;;;;;7.40;1.75;;;;;;;;;;5067222;28;20453;-68
2023/04/14 14:06:18;;;;;;;5.97;1.98;;;;;;;;;;5065742;28;20036;-68
2023/04/14 14:08:45;;;;;;;6.75;1.75;;;;;;;;;;5048683;28;20052;-68
2023/04/14 14:11:11;;;;;;;7.70;1.65;;;;;;;;;;5066937;28;20059;-68
2023/04/14 14:13:38;;;;;;;9.93;2.38;;;;;;;;;;5060625;28;20146;-68
2023/04/14 14:16:06;;;;;;;6.88;1.50;;;;;;;;;;5066594;28;20076;-68
2023/04/14 14:18:32;;;;;;;5.10;1.40;;;;;;;;;;5066223;28;20063;-68
2023/04/14 14:20:58;;;;;;;7.20;1.90;;;;;;;;;;5065012;28;20040;-68
2023/04/14 14:23:25;;;;;;;5.38;1.92;;;;;;;;;;5063333;28;20457;-68
2023/04/14 14:25:51;;;;;;;5.78;1.55;;;;;;;;;;5064083;28;20123;-68
2023/04/14 14:28:17;;;;;;;6.07;1.70;;;;;;;;;;5048264;28;20049;-68
2023/04/14 14:30:43;;;;;;;11.15;2.00;;;;;;;;;;5048131;28;20047;-68
2023/04/14 14:33:09;;;;;;;9.02;1.75;;;;;;;;;;5065914;28;20068;-68